createdAt,value
2018-01-18T00:02:20.264Z,2.40
2018-01-18T00:04:47.167Z,2.50
2018-01-18T00:07:14.095Z,2.50
2018-01-18T00:09:41.015Z,2.50
2018-01-18T00:12:07.937Z,2.50
2018-01-18T00:14:34.859Z,2.60
2018-01-18T00:17:01.775Z,2.60
2018-01-18T00:19:28.683Z,2.50
2018-01-18T00:21:55.603Z,2.50
2018-01-18T00:24:22.508Z,2.50
2018-01-18T00:26:49.415Z,2.50
2018-01-18T00:29:16.316Z,2.50
2018-01-18T00:31:43.228Z,2.50
2018-01-18T00:34:10.128Z,2.50
2018-01-18T00:36:37.079Z,2.50
2018-01-18T00:39:04.780Z,2.70
2018-01-18T00:41:31.704Z,2.50
2018-01-18T00:43:58.608Z,2.70
2018-01-18T00:46:25.525Z,2.40
2018-01-18T00:48:52.431Z,2.40
2018-01-18T00:51:19.359Z,2.40
2018-01-18T00:53:46.264Z,2.40
2018-01-18T00:56:13.182Z,2.30
2018-01-18T00:58:40.851Z,2.30
2018-01-18T01:01:07.780Z,2.40
2018-01-18T01:03:35.456Z,2.30
2018-01-18T01:06:02.375Z,2.10
2018-01-18T01:08:29.276Z,2.30
2018-01-18T01:10:56.213Z,2.30
2018-01-18T01:13:23.127Z,2.30
2018-01-18T01:15:50.056Z,2.40
2018-01-18T01:18:17.733Z,2.20
2018-01-18T01:20:45.421Z,2.20
2018-01-18T01:23:12.333Z,2.30
2018-01-18T01:25:40.024Z,2.00
2018-01-18T01:28:06.924Z,1.90
2018-01-18T01:30:33.836Z,2.00
2018-01-18T01:33:00.756Z,1.90
2018-01-18T01:35:27.660Z,2.00
2018-01-18T01:37:54.596Z,1.90
2018-01-18T01:40:21.504Z,1.90
2018-01-18T01:42:48.420Z,1.90
2018-01-18T01:45:15.329Z,1.90
2018-01-18T01:47:42.253Z,1.80
2018-01-18T01:50:09.159Z,1.70
2018-01-18T01:52:36.076Z,1.60
2018-01-18T01:55:03.752Z,1.50
2018-01-18T01:57:30.701Z,1.40
2018-01-18T01:59:57.608Z,1.50
2018-01-18T02:02:24.525Z,1.60
2018-01-18T02:04:51.440Z,1.60
2018-01-18T02:07:18.367Z,1.60
2018-01-18T02:09:46.036Z,1.70
2018-01-18T02:12:12.956Z,1.90
2018-01-18T02:14:39.860Z,1.70
2018-01-18T02:17:06.782Z,1.70
2018-01-18T02:19:33.688Z,1.80
2018-01-18T02:22:00.613Z,1.90
2018-01-18T02:24:27.516Z,1.90
2018-01-18T02:26:54.436Z,1.90
2018-01-18T02:29:22.115Z,2.00
2018-01-18T02:31:49.031Z,2.20
2018-01-18T02:34:16.708Z,2.00
2018-01-18T02:36:44.392Z,2.00
2018-01-18T02:39:11.295Z,2.20
2018-01-18T02:41:38.213Z,2.10
2018-01-18T02:44:05.132Z,2.10
2018-01-18T02:46:32.066Z,2.10
2018-01-18T02:48:58.981Z,2.10
2018-01-18T02:51:26.674Z,2.20
2018-01-18T02:53:53.592Z,2.20
2018-01-18T02:56:21.284Z,2.20
2018-01-18T02:58:48.204Z,2.20
2018-01-18T03:01:15.897Z,2.20
2018-01-18T03:03:42.807Z,2.30
2018-01-18T03:06:10.489Z,2.30
2018-01-18T03:08:37.422Z,2.40
2018-01-18T03:11:04.337Z,2.40
2018-01-18T03:13:31.241Z,2.40
2018-01-18T03:15:58.164Z,2.40
2018-01-18T03:18:25.070Z,2.40
2018-01-18T03:20:51.993Z,2.40
2018-01-18T03:23:18.900Z,2.40
2018-01-18T03:25:45.816Z,2.40
2018-01-18T03:28:12.724Z,2.40
2018-01-18T03:30:39.630Z,2.50
2018-01-18T03:33:06.556Z,2.40
2018-01-18T03:35:34.238Z,2.70
2018-01-18T03:38:01.168Z,2.50
2018-01-18T03:40:28.080Z,2.70
2018-01-18T03:42:55.009Z,2.60
2018-01-18T03:45:21.915Z,2.50
2018-01-18T03:47:48.839Z,2.50
2018-01-18T03:50:16.512Z,2.40
2018-01-18T03:52:43.452Z,2.50
2018-01-18T03:55:10.372Z,2.40
2018-01-18T03:57:38.064Z,2.50
2018-01-18T04:00:04.975Z,2.70
2018-01-18T04:02:31.901Z,2.50
2018-01-18T04:04:58.800Z,2.60
2018-01-18T04:07:25.730Z,2.50
2018-01-18T04:09:52.635Z,2.50
2018-01-18T04:12:19.558Z,2.40
2018-01-18T04:14:46.464Z,2.40
2018-01-18T04:17:13.386Z,2.40
2018-01-18T04:19:41.972Z,2.40
2018-01-18T04:22:09.664Z,2.40
2018-01-18T04:24:36.577Z,2.40
2018-01-18T04:27:04.267Z,2.30
2018-01-18T04:29:31.172Z,2.20
2018-01-18T04:31:58.096Z,2.40
2018-01-18T04:34:25.039Z,2.50
2018-01-18T04:36:51.952Z,2.40
2018-01-18T04:39:18.848Z,2.50
2018-01-18T04:41:45.761Z,2.60
2018-01-18T04:44:12.668Z,2.50
2018-01-18T04:46:39.597Z,2.50
2018-01-18T04:49:07.271Z,2.60
2018-01-18T04:51:34.961Z,2.60
2018-01-18T04:54:01.879Z,2.60
2018-01-18T04:56:28.805Z,2.60
2018-01-18T04:58:56.487Z,2.70
2018-01-18T05:01:23.400Z,2.60
2018-01-18T05:03:50.304Z,2.60
2018-01-18T05:06:17.232Z,2.60
2018-01-18T05:08:44.136Z,2.60
2018-01-18T05:11:11.062Z,2.70
2018-01-18T05:13:37.972Z,2.70
2018-01-18T05:16:04.901Z,2.70
2018-01-18T05:18:31.836Z,2.70
2018-01-18T05:20:58.765Z,2.60
2018-01-18T05:23:26.432Z,2.60
2018-01-18T05:25:54.126Z,2.60
2018-01-18T05:28:21.036Z,2.70
2018-01-18T05:30:48.728Z,2.60
2018-01-18T05:33:15.638Z,2.70
2018-01-18T05:35:43.337Z,2.70
2018-01-18T05:38:10.240Z,2.70
2018-01-18T05:40:37.944Z,2.60
2018-01-18T05:43:04.860Z,2.90
2018-01-18T05:45:32.547Z,2.80
2018-01-18T05:47:59.464Z,3.00
2018-01-18T05:50:27.155Z,2.80
2018-01-18T05:52:54.068Z,2.90
2018-01-18T05:55:21.756Z,2.70
2018-01-18T05:57:48.729Z,2.90
2018-01-18T06:00:15.664Z,2.80
2018-01-18T06:02:43.485Z,2.70
2018-01-18T06:05:10.427Z,2.80
2018-01-18T06:07:38.104Z,2.80
2018-01-18T06:10:05.023Z,2.90
2018-01-18T06:12:32.705Z,2.80
2018-01-18T06:15:00.388Z,2.90
2018-01-18T06:17:27.291Z,3.10
2018-01-18T06:19:54.970Z,2.90
2018-01-18T06:22:22.639Z,2.80
2018-01-18T06:24:49.551Z,3.10
2018-01-18T06:27:16.487Z,2.80
2018-01-18T06:29:43.400Z,2.80
2018-01-18T06:32:10.338Z,2.90
2018-01-18T06:34:37.244Z,2.80
2018-01-18T06:37:04.937Z,2.90
2018-01-18T06:39:31.851Z,3.10
2018-01-18T06:41:59.548Z,2.80
2018-01-18T06:44:26.469Z,2.90
2018-01-18T06:46:53.431Z,2.80
2018-01-18T06:49:20.337Z,2.80
2018-01-18T06:51:48.030Z,2.80
2018-01-18T06:54:14.967Z,2.90
2018-01-18T06:56:41.901Z,2.80
2018-01-18T06:59:09.582Z,2.90
2018-01-18T07:01:36.517Z,2.70
2018-01-18T07:04:04.205Z,2.80
2018-01-18T07:06:31.112Z,2.80
2018-01-18T07:08:58.807Z,2.80
2018-01-18T07:11:25.712Z,3.00
2018-01-18T07:13:53.391Z,2.70
2018-01-18T07:16:20.316Z,2.90
2018-01-18T07:18:47.277Z,2.80
2018-01-18T07:21:14.963Z,2.70
2018-01-18T07:23:41.868Z,2.60
2018-01-18T07:26:09.579Z,2.70
2018-01-18T07:28:36.497Z,2.70
2018-01-18T07:31:03.461Z,2.70
2018-01-18T07:33:30.378Z,2.60
2018-01-18T07:35:58.068Z,2.50
2018-01-18T07:38:24.980Z,2.30
2018-01-18T07:40:51.912Z,2.40
2018-01-18T07:43:18.833Z,2.40
2018-01-18T07:45:45.763Z,2.40
2018-01-18T07:48:12.668Z,2.30
2018-01-18T07:50:39.592Z,2.40
2018-01-18T07:53:07.268Z,2.40
2018-01-18T07:55:34.960Z,2.40
2018-01-18T07:58:01.881Z,2.40
2018-01-18T08:00:29.705Z,2.40
2018-01-18T08:02:56.652Z,2.40
2018-01-18T08:05:23.587Z,2.50
2018-01-18T08:07:50.501Z,2.50
2018-01-18T08:10:17.436Z,2.40
2018-01-18T08:12:44.335Z,2.40
2018-01-18T08:15:14.480Z,2.40
2018-01-18T08:17:41.431Z,2.40
2018-01-18T08:20:08.360Z,2.70
2018-01-18T08:22:36.172Z,2.40
2018-01-18T08:25:03.114Z,2.40
2018-01-18T08:27:30.024Z,2.50
2018-01-18T08:29:57.725Z,2.50
2018-01-18T08:32:24.629Z,2.70
2018-01-18T08:34:52.333Z,2.40
2018-01-18T08:37:19.256Z,2.60
2018-01-18T08:39:46.180Z,2.40
2018-01-18T08:42:13.864Z,2.40
2018-01-18T08:44:40.813Z,2.60
2018-01-18T08:47:07.760Z,2.40
2018-01-18T08:49:34.707Z,2.60
2018-01-18T08:52:01.628Z,2.60
2018-01-18T08:54:29.320Z,2.40
2018-01-18T08:56:56.261Z,2.50
2018-01-18T08:59:23.192Z,2.40
2018-01-18T09:01:50.864Z,2.30
2018-01-18T09:04:17.789Z,2.40
2018-01-18T09:06:45.486Z,2.30
2018-01-18T09:09:12.411Z,2.20
2018-01-18T09:11:39.336Z,2.30
2018-01-18T09:14:07.023Z,2.20
2018-01-18T09:16:33.940Z,2.50
2018-01-18T09:19:01.632Z,2.20
2018-01-18T09:21:28.547Z,2.40
2018-01-18T09:23:56.243Z,2.00
2018-01-18T09:26:23.937Z,2.00
2018-01-18T09:28:50.865Z,2.20
2018-01-18T09:31:17.772Z,1.90
2018-01-18T09:33:45.472Z,1.70
2018-01-18T09:36:12.396Z,1.70
2018-01-18T09:38:39.328Z,1.70
2018-01-18T09:41:06.260Z,1.70
2018-01-18T09:43:33.943Z,1.70
2018-01-18T09:46:00.859Z,1.90
2018-01-18T09:48:27.801Z,1.70
2018-01-18T09:50:55.484Z,1.60
2018-01-18T09:53:22.416Z,1.60
2018-01-18T09:55:50.092Z,1.50
2018-01-18T09:58:17.012Z,1.40
2018-01-18T10:00:43.919Z,1.40
2018-01-18T10:03:10.831Z,1.50
2018-01-18T10:05:37.744Z,1.50
2018-01-18T10:08:04.694Z,1.80
2018-01-18T10:10:32.401Z,1.50
2018-01-18T10:12:59.336Z,1.40
2018-01-18T10:15:26.242Z,1.40
2018-01-18T10:17:53.928Z,1.40
2018-01-18T10:20:20.844Z,1.30
2018-01-18T10:22:47.777Z,1.40
2018-01-18T10:25:14.688Z,1.40
2018-01-18T10:27:41.619Z,1.50
2018-01-18T10:30:08.530Z,1.30
2018-01-18T10:32:36.255Z,1.30
2018-01-18T10:35:03.152Z,1.60
2018-01-18T10:37:30.067Z,1.30
2018-01-18T10:39:56.974Z,1.30
2018-01-18T10:42:23.908Z,1.30
2018-01-18T10:44:50.810Z,1.30
2018-01-18T10:47:18.655Z,1.40
2018-01-18T10:49:45.564Z,1.40
2018-01-18T10:52:12.487Z,1.40
2018-01-18T10:54:39.392Z,1.40
2018-01-18T10:57:06.322Z,1.40
2018-01-18T10:59:33.234Z,1.50
2018-01-18T11:02:01.004Z,1.40
2018-01-18T11:04:27.977Z,1.40
2018-01-18T11:06:54.868Z,1.40
2018-01-18T11:09:21.772Z,1.30
2018-01-18T11:11:48.688Z,1.30
2018-01-18T11:14:16.359Z,1.40
2018-01-18T11:16:43.291Z,1.60
2018-01-18T11:19:10.978Z,1.40
2018-01-18T11:21:37.904Z,1.30
2018-01-18T11:24:04.817Z,1.50
2018-01-18T11:26:31.751Z,1.50
2018-01-18T11:28:58.688Z,1.60
2018-01-18T11:31:25.616Z,1.90
2018-01-18T11:33:52.536Z,1.50
2018-01-18T11:36:19.470Z,1.60
2018-01-18T11:38:46.377Z,1.60
2018-01-18T11:41:14.073Z,1.70
2018-01-18T11:43:40.979Z,1.80
2018-01-18T11:46:07.915Z,1.70
2018-01-18T11:48:34.823Z,1.80
2018-01-18T11:51:01.768Z,1.70
2018-01-18T11:53:28.680Z,1.80
2018-01-18T11:55:58.283Z,1.90
2018-01-18T11:58:25.204Z,2.10
2018-01-18T12:00:52.129Z,1.80
2018-01-18T12:03:19.039Z,1.90
2018-01-18T12:05:45.968Z,1.90
2018-01-18T12:08:12.883Z,1.90
2018-01-18T12:10:39.815Z,1.90
2018-01-18T12:13:06.715Z,1.90
2018-01-18T12:15:33.639Z,1.90
2018-01-18T12:18:01.327Z,1.80
2018-01-18T12:20:28.245Z,1.80
2018-01-18T12:22:55.154Z,1.80
2018-01-18T12:25:22.096Z,1.90
2018-01-18T12:27:49.018Z,1.90
2018-01-18T12:30:15.940Z,1.90
2018-01-18T12:32:42.835Z,1.90
2018-01-18T12:35:09.756Z,1.80
2018-01-18T12:37:36.668Z,1.80
2018-01-18T12:40:03.601Z,1.80
2018-01-18T12:42:31.265Z,1.80
2018-01-18T12:44:58.227Z,2.00
2018-01-18T12:47:25.131Z,1.90
2018-01-18T12:49:52.048Z,1.90
2018-01-18T12:52:18.956Z,1.90
2018-01-18T12:54:45.890Z,1.90
2018-01-18T12:57:12.797Z,1.90
2018-01-18T12:59:39.751Z,2.00
2018-01-18T13:02:06.651Z,2.00
2018-01-18T13:04:33.563Z,1.80
2018-01-18T13:07:01.385Z,1.90
2018-01-18T13:09:28.328Z,1.90
2018-01-18T13:11:55.239Z,1.90
2018-01-18T13:14:22.164Z,2.00
2018-01-18T13:16:49.060Z,2.00
2018-01-18T13:19:15.991Z,2.20
2018-01-18T13:21:42.899Z,2.10
2018-01-18T13:24:09.825Z,2.10
2018-01-18T13:26:37.493Z,2.30
2018-01-18T13:29:04.420Z,2.50
2018-01-18T13:31:31.311Z,2.30
2018-01-18T13:33:58.216Z,2.20
2018-01-18T13:36:25.925Z,2.10
2018-01-18T13:38:52.829Z,2.10
2018-01-18T13:41:20.511Z,2.10
2018-01-18T13:43:47.404Z,2.30
2018-01-18T13:46:14.320Z,2.10
2018-01-18T13:48:41.212Z,2.10
2018-01-18T13:51:08.893Z,2.30
2018-01-18T13:53:35.816Z,2.20
2018-01-18T13:56:02.718Z,2.20
2018-01-18T13:58:29.632Z,2.30
2018-01-18T14:00:56.540Z,2.30
2018-01-18T14:03:23.460Z,2.30
2018-01-18T14:05:50.368Z,2.20
2018-01-18T14:08:18.180Z,2.30
2018-01-18T14:10:45.098Z,2.20
2018-01-18T14:13:12.040Z,2.10
2018-01-18T14:15:38.954Z,2.20
2018-01-18T14:18:05.871Z,2.20
2018-01-18T14:20:32.780Z,2.20
2018-01-18T14:22:59.679Z,2.30
2018-01-18T14:25:26.604Z,2.40
2018-01-18T14:27:54.280Z,2.30
2018-01-18T14:30:21.964Z,2.30
2018-01-18T14:32:48.884Z,2.60
2018-01-18T14:35:16.590Z,2.30
2018-01-18T14:37:43.518Z,2.40
2018-01-18T14:40:10.424Z,2.40
2018-01-18T14:42:38.122Z,2.40
2018-01-18T14:45:05.031Z,2.50
2018-01-18T14:49:59.624Z,2.60
2018-01-18T14:52:26.621Z,2.40
2018-01-18T14:54:53.566Z,2.40
2018-01-18T14:57:20.462Z,2.30
2018-01-18T14:59:47.375Z,2.30
2018-01-18T15:02:14.284Z,2.30
2018-01-18T15:04:41.197Z,2.30
2018-01-18T15:07:09.021Z,2.20
2018-01-18T15:09:35.919Z,2.20
2018-01-18T15:12:04.763Z,2.20
2018-01-18T15:14:31.664Z,2.20
2018-01-18T15:16:58.589Z,2.20
2018-01-18T15:19:27.163Z,2.30
2018-01-18T15:21:54.080Z,2.30
2018-01-18T15:24:20.992Z,2.20
2018-01-18T15:26:47.903Z,2.30
2018-01-18T15:29:15.608Z,2.20
2018-01-18T15:31:42.513Z,2.30
2018-01-18T15:34:10.210Z,2.10
2018-01-18T15:36:37.125Z,2.10
2018-01-18T15:39:04.851Z,2.10
2018-01-18T15:41:31.769Z,2.20
2018-01-18T15:43:58.712Z,2.10
2018-01-18T15:46:25.617Z,2.30
2018-01-18T15:48:53.300Z,2.20
2018-01-18T15:51:20.204Z,2.20
2018-01-18T15:53:47.151Z,2.20
2018-01-18T15:56:14.056Z,2.20
2018-01-18T15:58:41.004Z,2.40
2018-01-18T16:01:07.920Z,2.20
2018-01-18T16:03:35.760Z,2.30
2018-01-18T16:06:02.667Z,2.20
2018-01-18T16:08:29.606Z,2.20
2018-01-18T16:10:56.532Z,2.30
2018-01-18T16:13:23.485Z,2.20
2018-01-18T16:15:50.411Z,2.30
2018-01-18T16:18:17.337Z,2.30
2018-01-18T16:20:44.255Z,2.30
2018-01-18T16:23:11.179Z,2.30
2018-01-18T16:25:38.100Z,2.20
2018-01-18T16:28:05.059Z,2.30
2018-01-18T16:30:31.963Z,2.30
2018-01-18T16:32:58.916Z,2.30
2018-01-18T16:35:25.853Z,2.30
2018-01-18T16:37:53.548Z,2.20
2018-01-18T16:40:20.485Z,2.40
2018-01-18T16:42:47.429Z,2.20
2018-01-18T16:45:14.368Z,2.20
2018-01-18T16:47:41.318Z,2.10
2018-01-18T16:50:08.230Z,2.20
2018-01-18T16:52:35.937Z,2.30
2018-01-18T16:55:02.857Z,2.20
2018-01-18T16:57:29.797Z,2.30
2018-01-18T16:59:56.769Z,2.40
2018-01-18T17:02:23.739Z,2.30
2018-01-18T17:04:51.552Z,2.40
2018-01-18T17:07:19.284Z,2.40
2018-01-18T17:09:46.192Z,2.60
2018-01-18T17:12:13.129Z,2.40
2018-01-18T17:14:40.038Z,2.30
2018-01-18T17:17:06.953Z,2.40
2018-01-18T17:19:33.883Z,2.30
2018-01-18T17:22:00.803Z,2.40
2018-01-18T17:24:27.751Z,2.30
2018-01-18T17:26:54.672Z,2.50
2018-01-18T17:29:21.584Z,2.50
2018-01-18T17:31:48.514Z,2.50
2018-01-18T17:34:15.444Z,2.80
2018-01-18T17:36:42.344Z,2.50
2018-01-18T17:39:09.276Z,2.40
2018-01-18T17:41:36.206Z,2.20
2018-01-18T17:44:03.136Z,2.30
2018-01-18T17:46:30.041Z,2.20
2018-01-18T17:48:57.728Z,2.20
2018-01-18T17:51:24.636Z,2.30
2018-01-18T17:53:52.331Z,2.20
2018-01-18T17:56:19.246Z,2.10
2018-01-18T17:58:46.935Z,2.20
2018-01-18T18:01:13.847Z,2.40
2018-01-18T18:03:41.540Z,2.50
2018-01-18T18:06:08.443Z,2.40
2018-01-18T18:08:35.373Z,2.50
2018-01-18T18:11:02.286Z,2.40
2018-01-18T18:13:29.199Z,2.30
2018-01-18T18:15:56.869Z,2.00
2018-01-18T18:18:23.797Z,2.10
2018-01-18T18:20:50.705Z,1.90
2018-01-18T18:23:17.676Z,1.90
2018-01-18T18:25:45.390Z,1.80
2018-01-18T18:28:12.316Z,2.00
2018-01-18T18:30:39.263Z,1.80
2018-01-18T18:33:06.225Z,2.00
2018-01-18T18:35:34.046Z,1.80
2018-01-18T18:38:01.740Z,1.90
2018-01-18T18:40:28.660Z,2.20
2018-01-18T18:42:56.347Z,2.20
2018-01-18T18:45:23.274Z,2.20
2018-01-18T18:47:50.210Z,2.20
2018-01-18T18:50:17.896Z,1.90
2018-01-18T18:52:44.873Z,2.00
2018-01-18T18:55:11.784Z,1.80
2018-01-18T18:57:38.703Z,1.90
2018-01-18T19:00:06.526Z,1.90
2018-01-18T19:02:33.504Z,1.90
2018-01-18T19:05:01.332Z,1.70
2018-01-18T19:07:28.260Z,1.70
2018-01-18T19:09:55.177Z,2.00
2018-01-18T19:12:22.124Z,1.90
2018-01-18T19:14:49.049Z,1.80
2018-01-18T19:17:16.744Z,1.90
2018-01-18T19:19:43.649Z,1.80
2018-01-18T19:22:11.369Z,1.90
2018-01-18T19:24:38.329Z,1.80
2018-01-18T19:27:05.265Z,1.80
2018-01-18T19:29:32.196Z,1.80
2018-01-18T19:31:59.128Z,1.80
2018-01-18T19:34:26.073Z,1.80
2018-01-18T19:36:53.004Z,1.70
2018-01-18T19:39:19.937Z,1.80
2018-01-18T19:41:46.884Z,1.70
2018-01-18T19:44:13.794Z,1.70
2018-01-18T19:46:40.809Z,1.80
2018-01-18T19:49:07.741Z,1.70
2018-01-18T19:51:34.669Z,1.70
2018-01-18T19:54:01.578Z,1.80
2018-01-18T19:56:28.550Z,1.80
2018-01-18T19:58:55.457Z,1.70
2018-01-18T20:01:22.388Z,2.00
2018-01-18T20:03:49.312Z,1.90
2018-01-18T20:06:16.229Z,1.90
2018-01-18T20:08:43.125Z,1.90
2018-01-18T20:11:10.049Z,1.90
2018-01-18T20:13:36.953Z,2.00
2018-01-18T20:16:03.915Z,1.80
2018-01-18T20:18:30.843Z,1.90
2018-01-18T20:20:58.544Z,1.90
2018-01-18T20:23:25.462Z,2.00
2018-01-18T20:25:52.403Z,1.90
2018-01-18T20:28:20.083Z,2.00
2018-01-18T20:30:47.003Z,2.30
2018-01-18T20:33:14.684Z,2.00
2018-01-18T20:35:41.608Z,2.00
2018-01-18T20:38:08.524Z,2.00
2018-01-18T20:40:35.455Z,2.00
2018-01-18T20:43:02.434Z,2.00
2018-01-18T20:45:30.155Z,2.00
2018-01-18T20:47:57.063Z,1.90
2018-01-18T20:50:23.992Z,2.00
2018-01-18T20:52:52.631Z,2.00
2018-01-18T20:55:20.507Z,1.90
2018-01-18T20:57:47.441Z,2.00
2018-01-18T21:00:14.395Z,2.00
2018-01-18T21:02:44.877Z,2.00
2018-01-18T21:05:11.834Z,2.00
2018-01-18T21:07:38.779Z,2.00
2018-01-18T21:10:08.982Z,2.10
2018-01-18T21:12:35.932Z,2.00
2018-01-18T21:15:03.784Z,2.10
2018-01-18T21:17:30.694Z,2.00
2018-01-18T21:19:57.671Z,2.10
2018-01-18T21:22:24.587Z,2.10
2018-01-18T21:24:51.512Z,2.10
2018-01-18T21:27:18.440Z,2.40
2018-01-18T21:29:45.355Z,2.20
2018-01-18T21:32:13.028Z,2.20
2018-01-18T21:34:39.960Z,2.40
2018-01-18T21:37:06.908Z,2.20
2018-01-18T21:39:34.615Z,2.10
2018-01-18T21:42:01.545Z,2.40
2018-01-18T21:44:28.478Z,2.10
2018-01-18T21:46:55.404Z,2.20
2018-01-18T21:49:23.104Z,2.20
2018-01-18T21:51:50.018Z,2.30
2018-01-18T21:54:16.973Z,2.20
2018-01-18T21:56:43.900Z,2.00
2018-01-18T21:59:10.847Z,2.10
2018-01-18T22:01:37.773Z,2.10
2018-01-18T22:04:04.704Z,2.10
2018-01-18T22:06:31.611Z,2.00
2018-01-18T22:09:01.216Z,2.10
2018-01-18T22:11:28.932Z,2.10
2018-01-18T22:13:55.872Z,2.20
2018-01-18T22:16:22.803Z,2.20
2018-01-18T22:18:49.765Z,2.10
2018-01-18T22:21:16.684Z,2.10
2018-01-18T22:23:43.634Z,2.10
2018-01-18T22:26:10.560Z,2.10
2018-01-18T22:28:37.492Z,2.10
2018-01-18T22:31:04.424Z,2.10
2018-01-18T22:33:31.359Z,2.20
2018-01-18T22:35:58.300Z,2.10
2018-01-18T22:38:25.296Z,2.10
2018-01-18T22:40:52.969Z,2.20
2018-01-18T22:43:19.908Z,2.30
2018-01-18T22:45:46.828Z,2.20
2018-01-18T22:48:13.777Z,2.20
2018-01-18T22:50:41.463Z,2.20
2018-01-18T22:53:08.383Z,2.30
2018-01-18T22:55:35.295Z,2.10
2018-01-18T22:58:02.224Z,2.10
2018-01-18T23:00:29.147Z,2.10
2018-01-18T23:02:56.080Z,2.10
2018-01-18T23:05:22.999Z,2.10
2018-01-18T23:07:50.706Z,2.40
2018-01-18T23:10:17.636Z,2.20
2018-01-18T23:12:44.611Z,2.30
2018-01-18T23:15:11.488Z,2.30
2018-01-18T23:17:38.411Z,2.30
2018-01-18T23:20:05.316Z,2.30
2018-01-18T23:22:32.239Z,2.50
2018-01-18T23:24:59.140Z,2.10
2018-01-18T23:27:26.060Z,2.20
2018-01-18T23:29:53.731Z,2.20
2018-01-18T23:32:21.428Z,2.20
2018-01-18T23:34:48.328Z,2.30
2018-01-18T23:37:15.492Z,2.20
2018-01-18T23:39:42.404Z,2.40
2018-01-18T23:42:18.429Z,2.10
2018-01-18T23:44:45.336Z,2.00
2018-01-18T23:47:12.529Z,2.20
2018-01-18T23:49:39.435Z,2.00
2018-01-18T23:52:06.352Z,2.00
2018-01-18T23:54:33.260Z,2.10
2018-01-18T23:57:00.177Z,2.10
2018-01-18T23:59:27.094Z,2.10
